Time;durP1;ratioP1;P1;durP2;ratioP2;P2;SDS_P1;SDS_P2;PMS_P1;PMS_P2;Temp;Humidity;BMP_temperature;BMP_pressure;BME280_temperature;BME280_humidity;BME280_pressure;Samples;Min_cycle;Max_cycle;Signal;HPM_P1;HPM_P2
2023/12/28 00:00:07;;;;;;;10.43;6.45;;;;;;;;;;4923465;28;20728;-74
2023/12/28 00:02:36;;;;;;;11.63;6.95;;;;;;;;;;4910132;28;20051;-72
2023/12/28 00:05:03;;;;;;;10.63;6.63;;;;;;;;;;4913589;29;20579;-72
2023/12/28 00:07:29;;;;;;;10.63;6.57;;;;;;;;;;4909796;28;20062;-73
2023/12/28 00:09:55;;;;;;;12.15;7.07;;;;;;;;;;4913017;29;20078;-72
2023/12/28 00:12:22;;;;;;;10.05;6.55;;;;;;;;;;4924041;28;20544;-73
2023/12/28 00:14:49;;;;;;;11.20;7.25;;;;;;;;;;4911647;28;20745;-72
2023/12/28 00:17:15;;;;;;;;;;;;;;;;;;4911379;29;20039;-75
2023/12/28 00:19:41;;;;;;;13.43;8.43;;;;;;;;;;4905804;28;19930;-72
2023/12/28 00:22:07;;;;;;;13.05;8.10;;;;;;;;;;4910207;29;20119;-73
2023/12/28 00:24:33;;;;;;;12.70;8.18;;;;;;;;;;4903707;28;20498;-73
2023/12/28 00:26:59;;;;;;;12.68;7.57;;;;;;;;;;4911985;29;20122;-72
2023/12/28 00:29:25;;;;;;;11.15;7.38;;;;;;;;;;4925549;28;20035;-73
2023/12/28 00:31:51;;;;;;;11.57;7.28;;;;;;;;;;4920528;28;20416;-73
2023/12/28 00:34:17;;;;;;;10.38;6.90;;;;;;;;;;4910050;29;20031;-73
2023/12/28 00:36:43;;;;;;;11.18;7.03;;;;;;;;;;4921986;28;20134;-73
2023/12/28 00:39:09;;;;;;;13.57;7.38;;;;;;;;;;4925008;28;20524;-73
2023/12/28 00:41:36;;;;;;;10.57;7.30;;;;;;;;;;4909379;28;20050;-73
2023/12/28 00:44:02;;;;;;;;;;;;;;;;;;4911108;29;20560;-73
2023/12/28 00:46:28;;;;;;;12.23;7.53;;;;;;;;;;4906103;28;19914;-73
2023/12/28 00:48:54;;;;;;;;;;;;;;;;;;4925190;28;20034;-73
2023/12/28 00:51:21;;;;;;;12.20;8.32;;;;;;;;;;4907599;29;19914;-73
2023/12/28 00:53:47;;;;;;;11.70;7.78;;;;;;;;;;4906824;28;20063;-73
2023/12/28 00:56:13;;;;;;;13.10;8.70;;;;;;;;;;4908665;29;20039;-73
2023/12/28 00:58:43;;;;;;;12.43;8.40;;;;;;;;;;4906359;28;20042;-73
2023/12/28 01:01:10;;;;;;;13.88;7.97;;;;;;;;;;4924507;28;20142;-74
2023/12/28 01:03:36;;;;;;;11.50;7.20;;;;;;;;;;4908233;28;20061;-73
2023/12/28 01:06:02;;;;;;;11.95;7.38;;;;;;;;;;4924852;28;20046;-73
2023/12/28 01:08:28;;;;;;;11.05;7.20;;;;;;;;;;4925869;28;20410;-72
2023/12/28 01:10:54;;;;;;;11.65;6.90;;;;;;;;;;4908242;29;20390;-72
2023/12/28 01:13:20;;;;;;;11.57;7.22;;;;;;;;;;4924891;28;20047;-72
2023/12/28 01:15:46;;;;;;;11.45;7.20;;;;;;;;;;4907932;28;20046;-73
2023/12/28 01:18:12;;;;;;;13.68;8.05;;;;;;;;;;4914185;29;20066;-72
2023/12/28 01:20:38;;;;;;;12.65;7.50;;;;;;;;;;4920554;28;20142;-72
2023/12/28 01:23:05;;;;;;;12.57;8.52;;;;;;;;;;4925959;28;20027;-72
2023/12/28 01:25:31;;;;;;;11.38;8.02;;;;;;;;;;4919344;28;20127;-72
2023/12/28 01:27:57;;;;;;;12.93;8.18;;;;;;;;;;4909438;28;20027;-72
2023/12/28 01:30:23;;;;;;;12.52;7.88;;;;;;;;;;4910555;29;20046;-72
2023/12/28 01:32:49;;;;;;;11.25;7.22;;;;;;;;;;4914297;28;20063;-72
2023/12/28 01:35:15;;;;;;;12.55;8.05;;;;;;;;;;4910724;29;20774;-74
2023/12/28 01:37:41;;;;;;;12.57;7.82;;;;;;;;;;4909382;28;20147;-72
2023/12/28 01:40:09;;;;;;;10.45;6.60;;;;;;;;;;4925058;28;20032;-72
2023/12/28 01:42:35;;;;;;;11.57;6.75;;;;;;;;;;4922789;28;20027;-72
2023/12/28 01:45:01;;;;;;;12.50;6.40;;;;;;;;;;4921957;28;20102;-72
2023/12/28 01:47:29;;;;;;;12.60;6.28;;;;;;;;;;4922392;28;20603;-72
2023/12/28 01:49:55;;;;;;;10.88;5.80;;;;;;;;;;4908289;29;20070;-72
2023/12/28 01:52:21;;;;;;;10.15;5.38;;;;;;;;;;4923909;28;20039;-72
2023/12/28 01:54:48;;;;;;;10.63;5.38;;;;;;;;;;4920731;28;20299;-72
2023/12/28 01:57:14;;;;;;;10.43;5.13;;;;;;;;;;4904323;29;20019;-72
2023/12/28 01:59:41;;;;;;;9.20;4.95;;;;;;;;;;4923273;28;20031;-75
2023/12/28 02:02:07;;;;;;;8.65;4.72;;;;;;;;;;4922351;28;20036;-72
2023/12/28 02:04:33;;;;;;;8.60;4.40;;;;;;;;;;4907151;28;20034;-72
2023/12/28 02:07:00;;;;;;;7.75;3.75;;;;;;;;;;4926669;28;20055;-73
2023/12/28 02:09:26;;;;;;;9.05;4.10;;;;;;;;;;4910479;29;20177;-72
2023/12/28 02:11:53;;;;;;;7.85;3.63;;;;;;;;;;4906508;28;20028;-73
2023/12/28 02:14:19;;;;;;;8.55;3.67;;;;;;;;;;4921385;28;20035;-75
2023/12/28 02:16:45;;;;;;;;;;;;;;;;;;4908840;28;21398;-74
2023/12/28 02:19:32;;;;;;;8.40;3.03;;;;;;;;;;4906445;29;20607;-74
2023/12/28 02:21:59;;;;;;;7.45;3.35;;;;;;;;;;4922828;28;20042;-74
2023/12/28 02:24:25;;;;;;;8.75;3.90;;;;;;;;;;4904632;29;20042;-74
2023/12/28 02:26:52;;;;;;;8.20;3.92;;;;;;;;;;4922795;28;20092;-74
2023/12/28 02:29:19;;;;;;;7.03;3.60;;;;;;;;;;4910332;28;20815;-74
2023/12/28 02:31:55;;;;;;;8.00;4.18;;;;;;;;;;4901710;28;20071;-74
2023/12/28 02:34:27;;;;;;;8.05;3.90;;;;;;;;;;4924068;28;20848;-74
2023/12/28 02:36:54;;;;;;;7.97;3.88;;;;;;;;;;4921584;28;20042;-74
2023/12/28 02:39:21;;;;;;;8.05;3.88;;;;;;;;;;4908421;29;20035;-74
2023/12/28 02:41:47;;;;;;;;;;;;;;;;;;4904136;28;20082;-74
2023/12/28 02:44:13;;;;;;;7.50;3.45;;;;;;;;;;4921778;28;20749;-74
2023/12/28 02:46:39;;;;;;;8.05;4.20;;;;;;;;;;4905372;28;20027;-74
2023/12/28 02:49:06;;;;;;;8.30;4.32;;;;;;;;;;4910504;29;20034;-74
2023/12/28 02:51:32;;;;;;;7.97;3.72;;;;;;;;;;4921257;28;20040;-74
2023/12/28 02:53:58;;;;;;;7.30;3.95;;;;;;;;;;4908087;29;20032;-74
2023/12/28 02:56:24;;;;;;;8.10;4.15;;;;;;;;;;4921627;28;20423;-74
2023/12/28 02:58:50;;;;;;;8.88;4.07;;;;;;;;;;4921589;28;20062;-74
2023/12/28 03:01:16;;;;;;;9.32;4.03;;;;;;;;;;4906698;29;20366;-74
2023/12/28 03:03:42;;;;;;;9.95;4.20;;;;;;;;;;4916071;28;20038;-74
2023/12/28 03:06:08;;;;;;;9.00;4.05;;;;;;;;;;4909621;29;20024;-74
2023/12/28 03:08:34;;;;;;;8.52;4.25;;;;;;;;;;4919451;28;20032;-74
2023/12/28 03:11:00;;;;;;;8.50;3.83;;;;;;;;;;4923071;28;20521;-74
2023/12/28 03:13:27;;;;;;;8.68;3.90;;;;;;;;;;4910267;29;20087;-74
2023/12/28 03:15:53;;;;;;;;;;;;;;;;;;4912276;28;20054;-74
2023/12/28 03:18:19;;;;;;;8.60;3.95;;;;;;;;;;4908835;29;20002;-74
2023/12/28 03:20:45;;;;;;;7.82;4.00;;;;;;;;;;4926565;28;20047;-74
2023/12/28 03:23:11;;;;;;;;;;;;;;;;;;4925905;28;20032;-74
2023/12/28 03:25:37;;;;;;;7.00;3.40;;;;;;;;;;4923497;28;19926;-73
2023/12/28 03:28:03;;;;;;;8.48;4.18;;;;;;;;;;4906781;29;20114;-74
2023/12/28 03:30:29;;;;;;;7.88;3.47;;;;;;;;;;4905155;28;20091;-74
2023/12/28 03:32:56;;;;;;;8.13;3.75;;;;;;;;;;4932441;28;20137;-74
2023/12/28 03:35:22;;;;;;;7.10;3.50;;;;;;;;;;4915282;29;20183;-74
2023/12/28 03:37:48;;;;;;;8.73;3.78;;;;;;;;;;4909827;28;20039;-72
2023/12/28 03:40:14;;;;;;;8.20;3.83;;;;;;;;;;4910950;29;20032;-74
2023/12/28 03:42:40;;;;;;;10.85;3.67;;;;;;;;;;4909233;28;20596;-73
2023/12/28 03:45:06;;;;;;;8.93;3.58;;;;;;;;;;4928816;28;20023;-75
2023/12/28 03:47:32;;;;;;;;;;;;;;;;;;4925992;28;20046;-74
2023/12/28 03:49:58;;;;;;;8.38;4.35;;;;;;;;;;4924587;28;19914;-72
2023/12/28 03:52:31;;;;;;;8.18;3.65;;;;;;;;;;4910057;29;20042;-72
2023/12/28 03:54:58;;;;;;;7.25;3.80;;;;;;;;;;4909838;29;20106;-72
2023/12/28 03:57:25;;;;;;;8.82;4.20;;;;;;;;;;4925345;28;20055;-73
2023/12/28 03:59:51;;;;;;;8.10;3.53;;;;;;;;;;4913542;28;20031;-72
2023/12/28 04:02:17;;;;;;;10.07;4.50;;;;;;;;;;4911318;29;20034;-73
2023/12/28 04:04:43;;;;;;;8.25;4.10;;;;;;;;;;4910422;28;20114;-73
2023/12/28 04:07:10;;;;;;;8.13;4.10;;;;;;;;;;4922953;28;20036;-74
2023/12/28 04:09:36;;;;;;;8.35;4.10;;;;;;;;;;4904026;28;20038;-72
2023/12/28 04:12:02;;;;;;;;;;;;;;;;;;4922932;28;20035;-72
2023/12/28 04:14:28;;;;;;;8.85;4.32;;;;;;;;;;4923244;28;19922;-72
2023/12/28 04:16:54;;;;;;;8.13;3.90;;;;;;;;;;4910580;29;20035;-75
2023/12/28 04:19:20;;;;;;;8.18;3.90;;;;;;;;;;4925518;28;20035;-72
2023/12/28 04:21:46;;;;;;;8.45;3.67;;;;;;;;;;4919160;28;20073;-73
2023/12/28 04:24:12;;;;;;;8.60;4.40;;;;;;;;;;4913082;29;20054;-73
2023/12/28 04:26:39;;;;;;;8.52;4.60;;;;;;;;;;4905048;28;20023;-73
2023/12/28 04:29:05;;;;;;;10.00;5.38;;;;;;;;;;4912115;29;20560;-73
2023/12/28 04:31:31;;;;;;;9.60;4.78;;;;;;;;;;4920519;28;20094;-73
2023/12/28 04:33:57;;;;;;;8.77;4.80;;;;;;;;;;4912757;29;20051;-72
2023/12/28 04:36:23;;;;;;;10.35;5.00;;;;;;;;;;4908387;29;20035;-72
2023/12/28 04:38:49;;;;;;;10.13;4.80;;;;;;;;;;4907545;28;20031;-73
2023/12/28 04:41:15;;;;;;;9.05;4.47;;;;;;;;;;4909612;29;20513;-73
2023/12/28 04:43:42;;;;;;;9.38;4.85;;;;;;;;;;4922019;28;20091;-74
2023/12/28 04:46:08;;;;;;;8.35;4.75;;;;;;;;;;4923647;28;20027;-73
2023/12/28 04:48:34;;;;;;;;;;;;;;;;;;4920960;28;20035;-73
2023/12/28 04:51:02;;;;;;;8.45;4.60;;;;;;;;;;4924061;28;19921;-75
2023/12/28 04:53:28;;;;;;;10.43;5.30;;;;;;;;;;4923883;28;20056;-73
2023/12/28 04:55:56;;;;;;;9.88;5.30;;;;;;;;;;4911091;29;20572;-73
2023/12/28 04:58:22;;;;;;;9.93;5.97;;;;;;;;;;4920509;28;20043;-73
2023/12/28 05:00:48;;;;;;;11.73;7.15;;;;;;;;;;4904171;28;20158;-72
2023/12/28 05:03:14;;;;;;;10.50;7.03;;;;;;;;;;4920614;28;20032;-73
2023/12/28 05:05:40;;;;;;;;;;;;;;;;;;4906807;28;20138;-73
2023/12/28 05:08:06;;;;;;;10.10;5.70;;;;;;;;;;4926219;28;20683;-73
2023/12/28 05:10:32;;;;;;;9.50;5.95;;;;;;;;;;4923193;28;20054;-73
2023/12/28 05:12:59;;;;;;;10.73;5.95;;;;;;;;;;4904777;29;20063;-73
2023/12/28 05:15:25;;;;;;;9.00;5.22;;;;;;;;;;4914355;29;20042;-73
2023/12/28 05:17:51;;;;;;;9.43;5.38;;;;;;;;;;4907856;28;20043;-73
2023/12/28 05:20:17;;;;;;;8.85;5.53;;;;;;;;;;4911810;29;22070;-74
2023/12/28 05:22:44;;;;;;;9.20;5.20;;;;;;;;;;4910346;28;20033;-73
2023/12/28 05:25:10;;;;;;;;;;;;;;;;;;4911039;29;20031;-73
2023/12/28 05:27:36;;;;;;;9.40;5.53;;;;;;;;;;4923171;28;20407;-73
2023/12/28 05:30:02;;;;;;;10.25;6.15;;;;;;;;;;4911297;29;20133;-73
2023/12/28 05:32:28;;;;;;;11.10;6.38;;;;;;;;;;4904762;28;20617;-72
2023/12/28 05:34:54;;;;;;;10.52;7.13;;;;;;;;;;4911617;29;20023;-72
2023/12/28 05:37:20;;;;;;;10.00;6.00;;;;;;;;;;4909619;29;20702;-73
2023/12/28 05:39:46;;;;;;;10.73;6.68;;;;;;;;;;4906613;28;20126;-72
2023/12/28 05:42:13;;;;;;;11.32;6.72;;;;;;;;;;4904266;29;20513;-72
2023/12/28 05:44:39;;;;;;;13.45;6.80;;;;;;;;;;4902201;28;20038;-73
2023/12/28 05:47:05;;;;;;;11.68;6.38;;;;;;;;;;4919386;28;20035;-73
2023/12/28 05:49:31;;;;;;;12.60;6.88;;;;;;;;;;4915132;28;20027;-73
2023/12/28 05:51:57;;;;;;;13.85;6.97;;;;;;;;;;4926924;28;20074;-72
2023/12/28 05:54:23;;;;;;;11.18;6.55;;;;;;;;;;4909186;29;20118;-73
2023/12/28 05:56:49;;;;;;;10.48;6.47;;;;;;;;;;4918505;28;20616;-72
2023/12/28 05:59:16;;;;;;;;;;;;;;;;;;4922532;28;20390;-73
2023/12/28 06:01:43;;;;;;;11.27;6.88;;;;;;;;;;4920739;28;20586;-75
2023/12/28 06:04:09;;;;;;;12.30;6.80;;;;;;;;;;4922637;28;20019;-73
2023/12/28 06:06:36;;;;;;;12.38;7.32;;;;;;;;;;4902395;28;20058;-73
2023/12/28 06:09:03;;;;;;;11.38;6.78;;;;;;;;;;4910138;29;20038;-72
2023/12/28 06:11:30;;;;;;;11.68;6.78;;;;;;;;;;4912904;28;20028;-73
2023/12/28 06:13:56;;;;;;;12.45;7.15;;;;;;;;;;4924651;28;20046;-73
2023/12/28 06:16:22;;;;;;;10.75;6.45;;;;;;;;;;4911147;29;20075;-72
2023/12/28 06:18:49;;;;;;;11.50;6.45;;;;;;;;;;4924039;28;20168;-75
2023/12/28 06:21:15;;;;;;;11.80;6.88;;;;;;;;;;4909123;29;20031;-72
2023/12/28 06:23:41;;;;;;;11.30;7.13;;;;;;;;;;4919969;28;20046;-73
2023/12/28 06:26:07;;;;;;;11.30;6.93;;;;;;;;;;4923595;28;20057;-73
2023/12/28 06:28:33;;;;;;;12.23;6.85;;;;;;;;;;4908099;28;20027;-73
2023/12/28 06:31:00;;;;;;;11.32;7.20;;;;;;;;;;4922956;28;20031;-72
2023/12/28 06:33:30;;;;;;;11.25;7.20;;;;;;;;;;4924005;28;20552;-72
2023/12/28 06:35:58;;;;;;;11.07;7.18;;;;;;;;;;4924412;28;20027;-73
2023/12/28 06:38:24;;;;;;;12.30;7.43;;;;;;;;;;4923009;28;20742;-75
2023/12/28 06:40:51;;;;;;;14.00;7.75;;;;;;;;;;4904832;28;20031;-75
2023/12/28 06:43:17;;;;;;;13.07;7.65;;;;;;;;;;4907280;29;20493;-74
2023/12/28 06:45:43;;;;;;;14.85;8.13;;;;;;;;;;4923563;28;20114;-74
2023/12/28 06:48:09;;;;;;;12.88;7.40;;;;;;;;;;4923818;28;20035;-73
2023/12/28 06:50:35;;;;;;;15.20;8.68;;;;;;;;;;4918965;28;20114;-73
2023/12/28 06:53:01;;;;;;;13.38;8.18;;;;;;;;;;4925463;28;20050;-73
2023/12/28 06:55:27;;;;;;;13.35;7.45;;;;;;;;;;4907804;29;20106;-73
2023/12/28 06:57:53;;;;;;;14.90;8.23;;;;;;;;;;4905692;28;20047;-73
2023/12/28 07:00:20;;;;;;;15.30;8.95;;;;;;;;;;4914421;29;20260;-74
2023/12/28 07:02:46;;;;;;;13.30;8.20;;;;;;;;;;4922645;28;20031;-73
2023/12/28 07:05:13;;;;;;;14.50;9.25;;;;;;;;;;4925514;28;20039;-73
2023/12/28 07:07:39;;;;;;;17.33;9.80;;;;;;;;;;4905280;28;20035;-73
2023/12/28 07:10:06;;;;;;;17.73;9.32;;;;;;;;;;4907621;29;20150;-75
2023/12/28 07:12:32;;;;;;;13.60;8.68;;;;;;;;;;4905040;28;20122;-74
2023/12/28 07:14:58;;;;;;;15.27;8.75;;;;;;;;;;4904514;29;20030;-74
2023/12/28 07:17:24;;;;;;;14.82;8.48;;;;;;;;;;4904693;29;20913;-73
2023/12/28 07:19:50;;;;;;;15.13;8.27;;;;;;;;;;4920493;28;20024;-74
2023/12/28 07:22:17;;;;;;;14.10;8.32;;;;;;;;;;4909184;29;20095;-74
2023/12/28 07:24:43;;;;;;;14.65;8.10;;;;;;;;;;4918740;28;20024;-73
2023/12/28 07:27:09;;;;;;;16.17;8.07;;;;;;;;;;4921747;28;20050;-73
2023/12/28 07:29:35;;;;;;;14.10;8.30;;;;;;;;;;4901717;28;20062;-73
2023/12/28 07:32:01;;;;;;;13.75;7.90;;;;;;;;;;4908961;29;20138;-73
2023/12/28 07:34:27;;;;;;;12.25;7.63;;;;;;;;;;4918838;28;20644;-73
2023/12/28 07:36:54;;;;;;;12.32;7.60;;;;;;;;;;4908476;29;20039;-74
2023/12/28 07:39:20;;;;;;;12.93;8.10;;;;;;;;;;4912307;29;20046;-73
2023/12/28 07:41:46;;;;;;;14.68;8.18;;;;;;;;;;4920126;28;20036;-74
2023/12/28 07:44:12;;;;;;;14.30;7.57;;;;;;;;;;4925187;28;20806;-73
2023/12/28 07:46:38;;;;;;;13.30;7.38;;;;;;;;;;4922313;28;20573;-74
2023/12/28 07:49:07;;;;;;;12.70;7.80;;;;;;;;;;4910494;29;20036;-73
2023/12/28 07:51:33;;;;;;;15.05;7.85;;;;;;;;;;4919337;28;20035;-74
2023/12/28 07:53:59;;;;;;;15.52;10.40;;;;;;;;;;4923762;28;20338;-73
2023/12/28 07:56:26;;;;;;;26.75;18.20;;;;;;;;;;4923752;28;20046;-74
2023/12/28 07:58:51;;;;;;;;;;;;;;;;;;4920794;28;20034;-74
2023/12/28 08:01:19;;;;;;;33.30;23.55;;;;;;;;;;4916189;28;19922;-74
2023/12/28 08:03:45;;;;;;;36.40;24.00;;;;;;;;;;4925275;28;20030;-74
2023/12/28 08:06:12;;;;;;;28.40;17.98;;;;;;;;;;4925371;28;20019;-74
2023/12/28 08:08:38;;;;;;;26.20;17.33;;;;;;;;;;4908550;28;20433;-75
2023/12/28 08:11:05;;;;;;;26.52;16.33;;;;;;;;;;4928373;28;20106;-75
2023/12/28 08:13:31;;;;;;;27.80;15.25;;;;;;;;;;4907869;28;20041;-75
2023/12/28 08:15:57;;;;;;;26.55;14.30;;;;;;;;;;4926543;28;20031;-75
2023/12/28 08:18:23;;;;;;;21.17;12.57;;;;;;;;;;4926349;28;20076;-75
2023/12/28 08:20:50;;;;;;;20.23;11.77;;;;;;;;;;4923684;28;20898;-74
2023/12/28 08:23:16;;;;;;;21.45;11.27;;;;;;;;;;4910766;29;20035;-74
2023/12/28 08:25:42;;;;;;;21.90;11.45;;;;;;;;;;4923000;28;20038;-74
2023/12/28 08:28:08;;;;;;;;;;;;;;;;;;4915983;29;20489;-74
2023/12/28 08:30:34;;;;;;;22.35;10.82;;;;;;;;;;4906873;28;19918;-74
2023/12/28 08:33:00;;;;;;;20.55;10.07;;;;;;;;;;4911589;29;20050;-74
2023/12/28 08:35:27;;;;;;;20.48;10.43;;;;;;;;;;4926233;28;20544;-81
2023/12/28 08:37:53;;;;;;;16.65;8.73;;;;;;;;;;4927619;28;20056;-80
2023/12/28 08:40:19;;;;;;;17.98;9.13;;;;;;;;;;4926563;28;20074;-81
2023/12/28 08:42:45;;;;;;;17.50;9.27;;;;;;;;;;4925034;28;20871;-80
2023/12/28 08:45:11;;;;;;;15.98;8.98;;;;;;;;;;4929132;28;20023;-80
2023/12/28 08:47:37;;;;;;;15.65;8.27;;;;;;;;;;4909260;28;20039;-80
2023/12/28 08:50:03;;;;;;;;;;;;;;;;;;4913505;29;20031;-80
2023/12/28 08:52:29;;;;;;;13.98;8.18;;;;;;;;;;4925128;28;20013;-80
2023/12/28 08:54:55;;;;;;;17.60;8.40;;;;;;;;;;4927631;28;20031;-83
2023/12/28 08:57:21;;;;;;;;;;;;;;;;;;4930547;28;20039;-81
2023/12/28 08:59:47;;;;;;;17.27;7.85;;;;;;;;;;4907752;28;20445;-78
2023/12/28 09:02:14;;;;;;;23.17;9.02;;;;;;;;;;4925551;28;20178;-78
2023/12/28 09:04:40;;;;;;;26.60;9.27;;;;;;;;;;4908301;28;20039;-80
2023/12/28 09:07:06;;;;;;;23.05;9.32;;;;;;;;;;4912216;29;20114;-79
2023/12/28 09:09:32;;;;;;;27.00;8.90;;;;;;;;;;4924757;28;20115;-79
2023/12/28 09:11:58;;;;;;;27.10;9.18;;;;;;;;;;4910648;29;20035;-80
2023/12/28 09:14:24;;;;;;;19.90;9.20;;;;;;;;;;4925702;28;20039;-79
2023/12/28 09:16:50;;;;;;;32.22;10.68;;;;;;;;;;4910463;28;20564;-79
2023/12/28 09:19:16;;;;;;;22.23;9.27;;;;;;;;;;4914191;29;20041;-80
2023/12/28 09:21:43;;;;;;;22.80;10.77;;;;;;;;;;4910294;28;20146;-79
2023/12/28 09:24:09;;;;;;;22.70;11.05;;;;;;;;;;4921888;28;20023;-79
2023/12/28 09:26:35;;;;;;;22.38;11.60;;;;;;;;;;4925891;28;20110;-79
2023/12/28 09:29:01;;;;;;;;;;;;;;;;;;4929566;28;20023;-80
2023/12/28 09:31:27;;;;;;;20.70;10.40;;;;;;;;;;4927312;28;21386;-77
2023/12/28 09:33:53;;;;;;;20.23;11.13;;;;;;;;;;4925289;28;20040;-78
2023/12/28 09:36:19;;;;;;;20.30;11.50;;;;;;;;;;4926962;28;20597;-78
2023/12/28 09:38:45;;;;;;;18.00;11.18;;;;;;;;;;4922866;28;20032;-79
2023/12/28 09:41:12;;;;;;;;;;;;;;;;;;4925965;28;20049;-79
2023/12/28 09:43:41;;;;;;;18.13;10.53;;;;;;;;;;4926012;28;19949;-78
2023/12/28 09:46:09;;;;;;;18.50;10.00;;;;;;;;;;4923303;28;20065;-77
2023/12/28 09:48:38;;;;;;;15.73;10.75;;;;;;;;;;4922808;28;20050;-79
2023/12/28 09:51:04;;;;;;;16.08;10.27;;;;;;;;;;4912657;29;20293;-80
2023/12/28 09:53:31;;;;;;;15.10;9.95;;;;;;;;;;4923896;28;20657;-80
2023/12/28 09:55:57;;;;;;;17.77;10.30;;;;;;;;;;4930103;28;20034;-80
2023/12/28 09:58:23;;;;;;;15.27;10.20;;;;;;;;;;4931884;28;20504;-82
2023/12/28 10:00:50;;;;;;;15.15;9.52;;;;;;;;;;4910383;28;20062;-81
2023/12/28 10:03:17;;;;;;;16.08;10.20;;;;;;;;;;4925823;28;20032;-81
2023/12/28 10:05:45;;;;;;;16.42;10.30;;;;;;;;;;4910475;28;20130;-81
2023/12/28 10:08:15;;;;;;;16.00;10.00;;;;;;;;;;4910245;29;20031;-81
2023/12/28 10:10:42;;;;;;;16.35;9.35;;;;;;;;;;4923627;28;20035;-82
2023/12/28 10:13:09;;;;;;;14.27;7.80;;;;;;;;;;4924239;28;20122;-79
2023/12/28 10:15:36;;;;;;;11.75;6.90;;;;;;;;;;4909817;28;20945;-81
2023/12/28 10:18:02;;;;;;;12.82;6.35;;;;;;;;;;4911518;29;20043;-80
2023/12/28 10:20:29;;;;;;;13.80;6.68;;;;;;;;;;4909467;28;20685;-80
2023/12/28 10:22:55;;;;;;;11.60;6.55;;;;;;;;;;4927199;28;20031;-80
2023/12/28 10:25:21;;;;;;;;;;;;;;;;;;4911893;29;20023;-79
2023/12/28 10:27:52;;;;;;;12.68;6.65;;;;;;;;;;4915946;28;20557;-78
2023/12/28 10:30:18;;;;;;;13.30;6.93;;;;;;;;;;4922865;28;20213;-79
2023/12/28 10:32:44;;;;;;;;;;;;;;;;;;4895069;29;20059;-80
2023/12/28 10:35:10;;;;;;;11.90;6.90;;;;;;;;;;4883992;29;19916;-80
2023/12/28 10:37:36;;;;;;;;;;;;;;;;;;4882792;29;20048;-80
2023/12/28 10:40:08;;;;;;;14.50;7.43;;;;;;;;;;4887526;29;20105;-82
2023/12/28 10:42:38;;;;;;;12.30;7.20;;;;;;;;;;4879653;29;20037;-80
2023/12/28 10:45:05;;;;;;;11.63;6.55;;;;;;;;;;4885905;29;20083;-80
2023/12/28 10:47:38;;;;;;;12.10;6.40;;;;;;;;;;4882426;29;20059;-80
2023/12/28 10:50:05;;;;;;;12.13;6.68;;;;;;;;;;4886576;29;20037;-81
2023/12/28 10:52:35;;;;;;;10.40;6.55;;;;;;;;;;4881439;29;20028;-81
2023/12/28 10:55:11;;;;;;;13.60;7.28;;;;;;;;;;4883376;29;20455;-79
2023/12/28 10:57:44;;;;;;;14.60;7.32;;;;;;;;;;4877689;29;20024;-82
2023/12/28 11:00:12;;;;;;;9.95;6.13;;;;;;;;;;4883399;29;20131;-82
2023/12/28 11:02:58;;;;;;;12.95;6.55;;;;;;;;;;4884415;29;20032;-83
2023/12/28 11:05:25;;;;;;;11.02;5.95;;;;;;;;;;4885098;29;20115;-82
2023/12/28 11:07:56;;;;;;;12.98;6.40;;;;;;;;;;4880269;29;21438;-82
2023/12/28 11:10:24;;;;;;;12.38;5.35;;;;;;;;;;4885550;29;20036;-83
2023/12/28 11:12:53;;;;;;;11.70;6.35;;;;;;;;;;4881983;29;20035;-82
2023/12/28 11:15:19;;;;;;;14.80;8.38;;;;;;;;;;4886612;29;20381;-84
2023/12/28 11:17:45;;;;;;;17.20;9.95;;;;;;;;;;4880841;29;20058;-82
2023/12/28 11:20:12;;;;;;;17.25;9.48;;;;;;;;;;4885501;29;20048;-80
2023/12/28 11:22:38;;;;;;;12.90;6.05;;;;;;;;;;4881451;29;20048;-81
2023/12/28 11:25:05;;;;;;;10.70;4.95;;;;;;;;;;4882916;29;20524;-80
2023/12/28 11:27:37;;;;;;;11.05;6.72;;;;;;;;;;4879215;29;20025;-79
2023/12/28 11:30:06;;;;;;;11.77;6.95;;;;;;;;;;4882426;29;20145;-80
2023/12/28 11:32:39;;;;;;;13.32;6.35;;;;;;;;;;4893604;28;20047;-80
2023/12/28 11:35:12;;;;;;;16.25;8.02;;;;;;;;;;4927328;28;20050;-79
2023/12/28 11:37:39;;;;;;;15.10;8.95;;;;;;;;;;4922708;28;20036;-81
2023/12/28 11:40:13;;;;;;;15.43;9.15;;;;;;;;;;4909159;28;20039;-80
2023/12/28 11:42:48;;;;;;;18.80;8.73;;;;;;;;;;4927785;28;20412;-79
2023/12/28 11:45:14;;;;;;;14.48;8.27;;;;;;;;;;4927120;28;20027;-80
2023/12/28 11:47:40;;;;;;;20.38;8.35;;;;;;;;;;4925103;28;20038;-80
2023/12/28 11:50:07;;;;;;;15.00;8.82;;;;;;;;;;4913610;29;20035;-80
2023/12/28 11:52:34;;;;;;;14.95;8.52;;;;;;;;;;4923279;28;20043;-79
2023/12/28 11:55:00;;;;;;;15.32;8.98;;;;;;;;;;4929917;28;20038;-80
2023/12/28 11:57:27;;;;;;;16.00;7.57;;;;;;;;;;4928378;28;20042;-80
2023/12/28 11:59:57;;;;;;;12.40;6.85;;;;;;;;;;4924053;28;20140;-80
2023/12/28 12:02:26;;;;;;;12.18;6.40;;;;;;;;;;4911194;29;20118;-80
2023/12/28 12:04:54;;;;;;;15.85;6.55;;;;;;;;;;4923375;28;20039;-80
2023/12/28 12:07:20;;;;;;;10.75;5.05;;;;;;;;;;4928739;28;20126;-80
2023/12/28 12:09:46;;;;;;;10.60;5.20;;;;;;;;;;4924138;28;20041;-80
2023/12/28 12:12:12;;;;;;;13.05;6.25;;;;;;;;;;4929332;28;20031;-80
2023/12/28 12:14:38;;;;;;;13.07;6.55;;;;;;;;;;4923801;28;20038;-80
2023/12/28 12:17:04;;;;;;;14.07;5.63;;;;;;;;;;4910352;29;20043;-80
2023/12/28 12:19:31;;;;;;;11.10;5.25;;;;;;;;;;4908328;28;20039;-81
2023/12/28 12:21:57;;;;;;;11.05;4.57;;;;;;;;;;4926602;28;20039;-81
2023/12/28 12:24:23;;;;;;;12.52;5.13;;;;;;;;;;4927832;28;20043;-81
2023/12/28 12:26:50;;;;;;;11.70;4.65;;;;;;;;;;4909911;28;20099;-81
2023/12/28 12:29:16;;;;;;;10.50;4.03;;;;;;;;;;4923079;28;20143;-81
2023/12/28 12:31:43;;;;;;;10.52;4.20;;;;;;;;;;4926398;28;20031;-82
2023/12/28 12:34:10;;;;;;;10.85;4.40;;;;;;;;;;4926798;28;20036;-81
2023/12/28 12:36:36;;;;;;;9.68;4.43;;;;;;;;;;4910704;28;20099;-82
2023/12/28 12:39:06;;;;;;;8.50;4.15;;;;;;;;;;4926477;28;20570;-83
2023/12/28 12:41:32;;;;;;;11.05;4.45;;;;;;;;;;4909547;28;20039;-81
2023/12/28 12:43:59;;;;;;;10.88;4.55;;;;;;;;;;4928137;28;20664;-82
2023/12/28 12:46:25;;;;;;;11.52;4.45;;;;;;;;;;4913122;29;20828;-81
2023/12/28 12:48:55;;;;;;;10.80;4.93;;;;;;;;;;4925594;28;20107;-81
2023/12/28 12:51:22;;;;;;;12.88;4.85;;;;;;;;;;4929109;28;20042;-81
2023/12/28 12:53:48;;;;;;;9.35;4.38;;;;;;;;;;4929807;28;20039;-81
2023/12/28 12:56:14;;;;;;;8.68;3.72;;;;;;;;;;4932762;28;20889;-81
2023/12/28 12:58:40;;;;;;;11.90;4.18;;;;;;;;;;4929782;28;20046;-81
2023/12/28 13:01:10;;;;;;;9.10;3.60;;;;;;;;;;4927433;28;20041;-81
2023/12/28 13:03:36;;;;;;;10.63;4.60;;;;;;;;;;4926667;28;20090;-82
2023/12/28 13:06:04;;;;;;;9.18;3.72;;;;;;;;;;4928638;28;20031;-81
2023/12/28 13:08:30;;;;;;;9.90;3.63;;;;;;;;;;4921052;28;20063;-81
2023/12/28 13:10:56;;;;;;;9.50;3.67;;;;;;;;;;4927155;28;20062;-81
2023/12/28 13:13:22;;;;;;;8.68;3.33;;;;;;;;;;4912141;29;20069;-81
2023/12/28 13:15:48;;;;;;;10.15;3.42;;;;;;;;;;4909998;28;22063;-81
2023/12/28 13:18:14;;;;;;;11.77;4.68;;;;;;;;;;4926787;28;20047;-82
2023/12/28 13:20:42;;;;;;;9.68;4.35;;;;;;;;;;4906152;28;20470;-83
2023/12/28 13:23:08;;;;;;;8.65;3.67;;;;;;;;;;4913137;29;20038;-81
2023/12/28 13:25:34;;;;;;;10.93;4.80;;;;;;;;;;4909487;28;20557;-81
2023/12/28 13:28:01;;;;;;;14.23;5.97;;;;;;;;;;4927109;28;20023;-81
2023/12/28 13:30:28;;;;;;;11.50;5.85;;;;;;;;;;4910545;29;20584;-81
2023/12/28 13:32:57;;;;;;;9.93;4.20;;;;;;;;;;4925899;28;20129;-81
2023/12/28 13:35:23;;;;;;;11.52;3.92;;;;;;;;;;4927085;28;20035;-81
2023/12/28 13:37:50;;;;;;;8.63;3.85;;;;;;;;;;4925321;28;21051;-83
2023/12/28 13:40:16;;;;;;;13.45;4.35;;;;;;;;;;4929071;28;20031;-82
2023/12/28 13:42:42;;;;;;;9.95;4.47;;;;;;;;;;4924454;28;20043;-81
2023/12/28 13:45:08;;;;;;;11.07;5.28;;;;;;;;;;4909748;29;20907;-81
2023/12/28 13:47:36;;;;;;;9.98;4.65;;;;;;;;;;4906897;28;20036;-82
2023/12/28 13:50:02;;;;;;;10.05;5.18;;;;;;;;;;4923488;28;20533;-83
2023/12/28 13:52:28;;;;;;;11.50;5.10;;;;;;;;;;4910281;29;20027;-81
2023/12/28 13:54:54;;;;;;;10.10;5.38;;;;;;;;;;4925736;28;20155;-82
2023/12/28 13:57:20;;;;;;;12.60;6.05;;;;;;;;;;4924647;28;20020;-81
2023/12/28 13:59:46;;;;;;;13.48;8.18;;;;;;;;;;4920683;28;20592;-81
2023/12/28 14:02:13;;;;;;;11.02;5.47;;;;;;;;;;4909509;29;20158;-81
2023/12/28 14:04:39;;;;;;;9.02;4.28;;;;;;;;;;4925183;28;21688;-81
2023/12/28 14:07:05;;;;;;;17.60;8.60;;;;;;;;;;4912208;29;20130;-82
2023/12/28 14:09:32;;;;;;;13.30;8.02;;;;;;;;;;4927750;28;20035;-84
2023/12/28 14:11:59;;;;;;;11.80;5.78;;;;;;;;;;4931744;29;20429;-84
2023/12/28 14:14:25;;;;;;;11.30;4.18;;;;;;;;;;4908731;29;20093;-82
2023/12/28 14:16:51;;;;;;;9.45;4.05;;;;;;;;;;4917134;28;20035;-83
2023/12/28 14:19:17;;;;;;;9.50;4.03;;;;;;;;;;4920559;28;20048;-82
2023/12/28 14:21:43;;;;;;;10.10;3.83;;;;;;;;;;4916995;28;20087;-81
2023/12/28 14:24:10;;;;;;;9.60;4.10;;;;;;;;;;4923781;28;20035;-80
2023/12/28 14:26:42;;;;;;;10.73;4.60;;;;;;;;;;4903231;28;20034;-82
2023/12/28 14:29:08;;;;;;;12.45;4.90;;;;;;;;;;4906531;29;20015;-83
2023/12/28 14:31:34;;;;;;;9.60;4.78;;;;;;;;;;4903842;28;20102;-83
2023/12/28 14:34:01;;;;;;;10.95;4.50;;;;;;;;;;4904435;29;20094;-81